sensor_id;sensor_type;location;lat;lon;timestamp;P1;durP1;ratioP1;P2;durP2;ratioP2
75890;SDS011;64571;47.512;19.054;2022-12-19T00:02:54;84.20;;;32.20;;
75890;SDS011;64571;47.512;19.054;2022-12-19T00:05:59;87.95;;;30.62;;
75890;SDS011;64571;47.512;19.054;2022-12-19T00:09:03;86.53;;;31.73;;
75890;SDS011;64571;47.512;19.054;2022-12-19T00:12:06;85.00;;;30.90;;
75890;SDS011;64571;47.512;19.054;2022-12-19T00:15:19;86.40;;;31.05;;
75890;SDS011;64571;47.512;19.054;2022-12-19T00:18:22;78.07;;;27.83;;
75890;SDS011;64571;47.512;19.054;2022-12-19T00:21:26;89.25;;;28.90;;
75890;SDS011;64571;47.512;19.054;2022-12-19T00:24:30;85.15;;;28.48;;
75890;SDS011;64571;47.512;19.054;2022-12-19T00:27:33;79.55;;;28.50;;
75890;SDS011;64571;47.512;19.054;2022-12-19T00:30:37;86.47;;;28.05;;
75890;SDS011;64571;47.512;19.054;2022-12-19T00:33:40;87.60;;;29.10;;
75890;SDS011;64571;47.512;19.054;2022-12-19T00:36:45;76.12;;;27.80;;
75890;SDS011;64571;47.512;19.054;2022-12-19T00:39:48;79.22;;;26.08;;
75890;SDS011;64571;47.512;19.054;2022-12-19T00:42:50;77.28;;;25.85;;
75890;SDS011;64571;47.512;19.054;2022-12-19T00:45:54;74.15;;;28.92;;
75890;SDS011;64571;47.512;19.054;2022-12-19T00:48:57;82.93;;;25.10;;
75890;SDS011;64571;47.512;19.054;2022-12-19T00:52:00;71.62;;;25.65;;
75890;SDS011;64571;47.512;19.054;2022-12-19T00:55:04;73.82;;;25.75;;
75890;SDS011;64571;47.512;19.054;2022-12-19T00:58:17;67.97;;;23.58;;
75890;SDS011;64571;47.512;19.054;2022-12-19T01:01:21;79.25;;;27.55;;
75890;SDS011;64571;47.512;19.054;2022-12-19T01:04:24;74.37;;;26.17;;
75890;SDS011;64571;47.512;19.054;2022-12-19T01:07:30;82.30;;;28.00;;
75890;SDS011;64571;47.512;19.054;2022-12-19T01:10:34;87.60;;;29.30;;
75890;SDS011;64571;47.512;19.054;2022-12-19T01:13:37;85.82;;;26.73;;
75890;SDS011;64571;47.512;19.054;2022-12-19T01:16:42;84.97;;;28.92;;
75890;SDS011;64571;47.512;19.054;2022-12-19T01:19:45;91.23;;;31.50;;
75890;SDS011;64571;47.512;19.054;2022-12-19T01:22:47;81.20;;;27.90;;
75890;SDS011;64571;47.512;19.054;2022-12-19T01:25:53;82.15;;;28.30;;
75890;SDS011;64571;47.512;19.054;2022-12-19T01:28:57;88.55;;;28.23;;
75890;SDS011;64571;47.512;19.054;2022-12-19T01:32:01;87.88;;;28.70;;
75890;SDS011;64571;47.512;19.054;2022-12-19T01:35:05;89.17;;;27.97;;
75890;SDS011;64571;47.512;19.054;2022-12-19T01:38:21;77.30;;;23.83;;
75890;SDS011;64571;47.512;19.054;2022-12-19T01:41:24;90.45;;;26.37;;
75890;SDS011;64571;47.512;19.054;2022-12-19T01:44:27;81.12;;;26.25;;
75890;SDS011;64571;47.512;19.054;2022-12-19T01:47:29;77.87;;;26.35;;
75890;SDS011;64571;47.512;19.054;2022-12-19T01:50:38;88.33;;;33.40;;
75890;SDS011;64571;47.512;19.054;2022-12-19T01:53:58;86.70;;;28.00;;
75890;SDS011;64571;47.512;19.054;2022-12-19T01:57:05;83.80;;;25.60;;
75890;SDS011;64571;47.512;19.054;2022-12-19T02:00:11;79.22;;;26.67;;
75890;SDS011;64571;47.512;19.054;2022-12-19T02:03:19;77.05;;;24.77;;
75890;SDS011;64571;47.512;19.054;2022-12-19T02:06:26;73.10;;;25.53;;
75890;SDS011;64571;47.512;19.054;2022-12-19T02:09:32;74.72;;;24.58;;
75890;SDS011;64571;47.512;19.054;2022-12-19T02:12:36;75.90;;;24.92;;
75890;SDS011;64571;47.512;19.054;2022-12-19T02:19:01;73.30;;;26.55;;
75890;SDS011;64571;47.512;19.054;2022-12-19T02:22:23;78.50;;;27.17;;
75890;SDS011;64571;47.512;19.054;2022-12-19T02:32:17;88.50;;;24.30;;
75890;SDS011;64571;47.512;19.054;2022-12-19T02:35:47;83.35;;;26.10;;
75890;SDS011;64571;47.512;19.054;2022-12-19T02:42:33;81.90;;;26.50;;
75890;SDS011;64571;47.512;19.054;2022-12-19T02:45:38;74.80;;;24.35;;
75890;SDS011;64571;47.512;19.054;2022-12-19T02:48:43;72.93;;;24.05;;
75890;SDS011;64571;47.512;19.054;2022-12-19T02:51:46;73.07;;;23.87;;
75890;SDS011;64571;47.512;19.054;2022-12-19T02:54:49;72.17;;;23.50;;
75890;SDS011;64571;47.512;19.054;2022-12-19T03:01:56;83.20;;;25.15;;
75890;SDS011;64571;47.512;19.054;2022-12-19T03:04:58;86.70;;;27.67;;
75890;SDS011;64571;47.512;19.054;2022-12-19T03:11:21;76.17;;;23.87;;
75890;SDS011;64571;47.512;19.054;2022-12-19T03:14:25;77.30;;;26.70;;
75890;SDS011;64571;47.512;19.054;2022-12-19T03:17:33;69.47;;;23.73;;
75890;SDS011;64571;47.512;19.054;2022-12-19T03:23:51;78.45;;;25.58;;
75890;SDS011;64571;47.512;19.054;2022-12-19T03:26:56;87.33;;;28.30;;
75890;SDS011;64571;47.512;19.054;2022-12-19T03:30:10;92.45;;;29.30;;
75890;SDS011;64571;47.512;19.054;2022-12-19T03:33:14;87.28;;;29.35;;
75890;SDS011;64571;47.512;19.054;2022-12-19T03:36:22;91.37;;;29.33;;
75890;SDS011;64571;47.512;19.054;2022-12-19T03:39:30;81.93;;;27.02;;
75890;SDS011;64571;47.512;19.054;2022-12-19T03:42:36;88.50;;;28.07;;
75890;SDS011;64571;47.512;19.054;2022-12-19T03:46:00;82.60;;;27.95;;
75890;SDS011;64571;47.512;19.054;2022-12-19T03:49:07;82.95;;;29.80;;
75890;SDS011;64571;47.512;19.054;2022-12-19T03:52:15;84.07;;;26.70;;
75890;SDS011;64571;47.512;19.054;2022-12-19T03:58:34;84.27;;;26.33;;
75890;SDS011;64571;47.512;19.054;2022-12-19T04:01:42;87.22;;;27.35;;
75890;SDS011;64571;47.512;19.054;2022-12-19T04:04:47;83.53;;;25.98;;
75890;SDS011;64571;47.512;19.054;2022-12-19T04:07:55;84.75;;;27.40;;
75890;SDS011;64571;47.512;19.054;2022-12-19T04:11:06;89.37;;;26.25;;
75890;SDS011;64571;47.512;19.054;2022-12-19T04:14:17;95.57;;;30.03;;
75890;SDS011;64571;47.512;19.054;2022-12-19T04:20:35;83.32;;;25.52;;
75890;SDS011;64571;47.512;19.054;2022-12-19T04:23:49;81.32;;;26.75;;
75890;SDS011;64571;47.512;19.054;2022-12-19T04:26:58;82.25;;;27.50;;
75890;SDS011;64571;47.512;19.054;2022-12-19T04:30:03;78.97;;;25.43;;
75890;SDS011;64571;47.512;19.054;2022-12-19T04:33:06;85.45;;;26.00;;
75890;SDS011;64571;47.512;19.054;2022-12-19T04:36:09;98.55;;;26.67;;
75890;SDS011;64571;47.512;19.054;2022-12-19T04:39:12;76.30;;;24.50;;
75890;SDS011;64571;47.512;19.054;2022-12-19T04:42:14;82.72;;;25.50;;
75890;SDS011;64571;47.512;19.054;2022-12-19T04:45:17;87.83;;;28.00;;
75890;SDS011;64571;47.512;19.054;2022-12-19T04:48:19;79.82;;;25.02;;
75890;SDS011;64571;47.512;19.054;2022-12-19T04:51:22;83.22;;;26.70;;
75890;SDS011;64571;47.512;19.054;2022-12-19T04:54:24;82.82;;;26.73;;
75890;SDS011;64571;47.512;19.054;2022-12-19T04:57:28;94.28;;;29.52;;
75890;SDS011;64571;47.512;19.054;2022-12-19T05:00:32;78.30;;;25.07;;
75890;SDS011;64571;47.512;19.054;2022-12-19T05:03:35;87.50;;;29.40;;
75890;SDS011;64571;47.512;19.054;2022-12-19T05:06:38;98.05;;;27.55;;
75890;SDS011;64571;47.512;19.054;2022-12-19T05:09:40;92.50;;;29.65;;
75890;SDS011;64571;47.512;19.054;2022-12-19T05:12:43;97.55;;;29.60;;
75890;SDS011;64571;47.512;19.054;2022-12-19T05:15:53;83.20;;;27.17;;
75890;SDS011;64571;47.512;19.054;2022-12-19T05:18:57;92.57;;;28.75;;
75890;SDS011;64571;47.512;19.054;2022-12-19T05:21:59;90.18;;;28.83;;
75890;SDS011;64571;47.512;19.054;2022-12-19T05:25:02;91.95;;;27.23;;
75890;SDS011;64571;47.512;19.054;2022-12-19T05:28:05;87.10;;;27.23;;
75890;SDS011;64571;47.512;19.054;2022-12-19T05:31:08;95.97;;;29.23;;
75890;SDS011;64571;47.512;19.054;2022-12-19T05:34:11;88.32;;;27.35;;
75890;SDS011;64571;47.512;19.054;2022-12-19T05:37:13;80.72;;;27.10;;
75890;SDS011;64571;47.512;19.054;2022-12-19T05:40:16;85.50;;;28.87;;
75890;SDS011;64571;47.512;19.054;2022-12-19T05:43:19;86.78;;;28.98;;
75890;SDS011;64571;47.512;19.054;2022-12-19T05:46:21;91.80;;;27.90;;
75890;SDS011;64571;47.512;19.054;2022-12-19T05:49:25;90.28;;;28.77;;
75890;SDS011;64571;47.512;19.054;2022-12-19T05:52:28;83.05;;;28.92;;
75890;SDS011;64571;47.512;19.054;2022-12-19T05:55:30;85.35;;;28.48;;
75890;SDS011;64571;47.512;19.054;2022-12-19T05:58:33;84.35;;;26.17;;
75890;SDS011;64571;47.512;19.054;2022-12-19T06:01:36;80.20;;;27.97;;
75890;SDS011;64571;47.512;19.054;2022-12-19T06:04:39;88.20;;;27.23;;
75890;SDS011;64571;47.512;19.054;2022-12-19T06:07:42;85.20;;;26.77;;
75890;SDS011;64571;47.512;19.054;2022-12-19T06:10:44;92.03;;;30.45;;
75890;SDS011;64571;47.512;19.054;2022-12-19T06:13:46;81.65;;;26.90;;
75890;SDS011;64571;47.512;19.054;2022-12-19T06:16:49;88.10;;;28.13;;
75890;SDS011;64571;47.512;19.054;2022-12-19T06:19:51;78.93;;;26.42;;
75890;SDS011;64571;47.512;19.054;2022-12-19T06:22:54;87.07;;;30.35;;
75890;SDS011;64571;47.512;19.054;2022-12-19T06:25:57;82.57;;;27.08;;
75890;SDS011;64571;47.512;19.054;2022-12-19T06:29:00;82.20;;;28.17;;
75890;SDS011;64571;47.512;19.054;2022-12-19T06:32:02;91.03;;;27.37;;
75890;SDS011;64571;47.512;19.054;2022-12-19T06:35:05;84.13;;;28.05;;
75890;SDS011;64571;47.512;19.054;2022-12-19T06:38:08;88.85;;;29.98;;
75890;SDS011;64571;47.512;19.054;2022-12-19T06:41:11;88.65;;;26.75;;
75890;SDS011;64571;47.512;19.054;2022-12-19T06:44:32;82.68;;;26.08;;
75890;SDS011;64571;47.512;19.054;2022-12-19T06:47:35;70.77;;;25.70;;
75890;SDS011;64571;47.512;19.054;2022-12-19T06:50:37;78.28;;;26.30;;
75890;SDS011;64571;47.512;19.054;2022-12-19T06:53:40;82.00;;;27.13;;
75890;SDS011;64571;47.512;19.054;2022-12-19T06:56:42;86.55;;;27.85;;
75890;SDS011;64571;47.512;19.054;2022-12-19T06:59:45;82.68;;;27.92;;
75890;SDS011;64571;47.512;19.054;2022-12-19T07:02:48;81.47;;;27.07;;
75890;SDS011;64571;47.512;19.054;2022-12-19T07:05:52;79.35;;;25.02;;
75890;SDS011;64571;47.512;19.054;2022-12-19T07:08:55;77.97;;;25.12;;
75890;SDS011;64571;47.512;19.054;2022-12-19T07:11:57;74.57;;;27.02;;
75890;SDS011;64571;47.512;19.054;2022-12-19T07:15:00;75.15;;;25.52;;
75890;SDS011;64571;47.512;19.054;2022-12-19T07:18:03;86.43;;;27.03;;
75890;SDS011;64571;47.512;19.054;2022-12-19T07:21:08;87.15;;;29.52;;
75890;SDS011;64571;47.512;19.054;2022-12-19T07:24:15;79.57;;;26.80;;
75890;SDS011;64571;47.512;19.054;2022-12-19T07:27:17;91.65;;;29.52;;
75890;SDS011;64571;47.512;19.054;2022-12-19T07:30:20;67.72;;;22.70;;
75890;SDS011;64571;47.512;19.054;2022-12-19T07:33:23;78.93;;;24.97;;
75890;SDS011;64571;47.512;19.054;2022-12-19T07:36:26;71.60;;;23.95;;
75890;SDS011;64571;47.512;19.054;2022-12-19T07:39:28;72.28;;;22.10;;
75890;SDS011;64571;47.512;19.054;2022-12-19T07:42:31;65.80;;;23.20;;
75890;SDS011;64571;47.512;19.054;2022-12-19T07:45:35;60.28;;;21.95;;
75890;SDS011;64571;47.512;19.054;2022-12-19T07:48:39;63.67;;;19.57;;
75890;SDS011;64571;47.512;19.054;2022-12-19T07:51:41;60.88;;;19.60;;
75890;SDS011;64571;47.512;19.054;2022-12-19T07:54:44;66.55;;;25.92;;
75890;SDS011;64571;47.512;19.054;2022-12-19T07:57:46;61.50;;;20.52;;
75890;SDS011;64571;47.512;19.054;2022-12-19T08:00:56;60.95;;;20.45;;
75890;SDS011;64571;47.512;19.054;2022-12-19T08:04:00;62.37;;;21.37;;
75890;SDS011;64571;47.512;19.054;2022-12-19T08:07:02;59.33;;;21.23;;
75890;SDS011;64571;47.512;19.054;2022-12-19T08:10:05;59.85;;;21.58;;
75890;SDS011;64571;47.512;19.054;2022-12-19T08:13:08;63.10;;;19.98;;
75890;SDS011;64571;47.512;19.054;2022-12-19T08:16:11;63.75;;;19.12;;
75890;SDS011;64571;47.512;19.054;2022-12-19T08:19:13;55.00;;;19.80;;
75890;SDS011;64571;47.512;19.054;2022-12-19T08:22:16;54.58;;;19.90;;
75890;SDS011;64571;47.512;19.054;2022-12-19T08:25:18;47.62;;;17.35;;
75890;SDS011;64571;47.512;19.054;2022-12-19T08:28:21;42.38;;;15.52;;
75890;SDS011;64571;47.512;19.054;2022-12-19T08:31:24;45.85;;;17.05;;
75890;SDS011;64571;47.512;19.054;2022-12-19T08:34:28;48.33;;;17.03;;
75890;SDS011;64571;47.512;19.054;2022-12-19T08:37:30;43.30;;;13.60;;
75890;SDS011;64571;47.512;19.054;2022-12-19T08:40:33;42.83;;;16.55;;
75890;SDS011;64571;47.512;19.054;2022-12-19T08:43:36;36.92;;;13.48;;
75890;SDS011;64571;47.512;19.054;2022-12-19T08:46:39;43.03;;;14.77;;
75890;SDS011;64571;47.512;19.054;2022-12-19T08:49:50;40.73;;;14.27;;
75890;SDS011;64571;47.512;19.054;2022-12-19T08:52:53;33.88;;;13.98;;
75890;SDS011;64571;47.512;19.054;2022-12-19T08:56:02;45.17;;;15.50;;
75890;SDS011;64571;47.512;19.054;2022-12-19T08:59:08;40.08;;;14.32;;
75890;SDS011;64571;47.512;19.054;2022-12-19T09:02:14;39.65;;;14.80;;
75890;SDS011;64571;47.512;19.054;2022-12-19T09:05:17;43.87;;;15.80;;
75890;SDS011;64571;47.512;19.054;2022-12-19T09:08:39;41.83;;;14.48;;
75890;SDS011;64571;47.512;19.054;2022-12-19T09:11:42;41.60;;;15.50;;
75890;SDS011;64571;47.512;19.054;2022-12-19T09:14:49;47.22;;;17.80;;
75890;SDS011;64571;47.512;19.054;2022-12-19T09:17:51;47.13;;;15.55;;
75890;SDS011;64571;47.512;19.054;2022-12-19T09:20:54;41.03;;;15.33;;
75890;SDS011;64571;47.512;19.054;2022-12-19T09:23:57;37.95;;;14.45;;
75890;SDS011;64571;47.512;19.054;2022-12-19T09:27:08;42.78;;;15.88;;
75890;SDS011;64571;47.512;19.054;2022-12-19T09:30:11;38.78;;;15.23;;
75890;SDS011;64571;47.512;19.054;2022-12-19T09:33:14;43.05;;;15.68;;
75890;SDS011;64571;47.512;19.054;2022-12-19T09:36:18;44.83;;;17.40;;
75890;SDS011;64571;47.512;19.054;2022-12-19T09:39:22;44.15;;;17.48;;
75890;SDS011;64571;47.512;19.054;2022-12-19T09:45:43;38.38;;;14.00;;
75890;SDS011;64571;47.512;19.054;2022-12-19T09:48:56;48.67;;;18.05;;
75890;SDS011;64571;47.512;19.054;2022-12-19T09:55:32;41.90;;;16.23;;
75890;SDS011;64571;47.512;19.054;2022-12-19T09:58:43;39.33;;;15.40;;
75890;SDS011;64571;47.512;19.054;2022-12-19T10:01:53;44.75;;;16.73;;
75890;SDS011;64571;47.512;19.054;2022-12-19T10:08:48;47.20;;;16.03;;
75890;SDS011;64571;47.512;19.054;2022-12-19T10:15:54;41.25;;;15.57;;
75890;SDS011;64571;47.512;19.054;2022-12-19T10:19:05;39.70;;;14.82;;
75890;SDS011;64571;47.512;19.054;2022-12-19T10:25:58;46.80;;;15.73;;
75890;SDS011;64571;47.512;19.054;2022-12-19T10:32:39;44.28;;;15.40;;
75890;SDS011;64571;47.512;19.054;2022-12-19T10:35:58;43.15;;;15.73;;
75890;SDS011;64571;47.512;19.054;2022-12-19T10:39:20;36.80;;;15.45;;
75890;SDS011;64571;47.512;19.054;2022-12-19T10:45:57;43.53;;;15.25;;
75890;SDS011;64571;47.512;19.054;2022-12-19T10:49:15;41.45;;;16.15;;
75890;SDS011;64571;47.512;19.054;2022-12-19T10:53:06;40.50;;;15.50;;
75890;SDS011;64571;47.512;19.054;2022-12-19T10:55:53;42.22;;;15.65;;
75890;SDS011;64571;47.512;19.054;2022-12-19T10:59:01;39.17;;;14.60;;
75890;SDS011;64571;47.512;19.054;2022-12-19T11:02:11;43.35;;;14.75;;
75890;SDS011;64571;47.512;19.054;2022-12-19T11:05:47;37.28;;;13.93;;
75890;SDS011;64571;47.512;19.054;2022-12-19T11:09:19;36.25;;;13.85;;
75890;SDS011;64571;47.512;19.054;2022-12-19T11:12:23;38.22;;;15.30;;
75890;SDS011;64571;47.512;19.054;2022-12-19T11:15:48;43.23;;;16.17;;
75890;SDS011;64571;47.512;19.054;2022-12-19T11:19:46;40.95;;;14.98;;
75890;SDS011;64571;47.512;19.054;2022-12-19T11:23:01;45.00;;;14.38;;
75890;SDS011;64571;47.512;19.054;2022-12-19T11:26:43;35.03;;;14.05;;
75890;SDS011;64571;47.512;19.054;2022-12-19T11:30:17;49.08;;;16.83;;
75890;SDS011;64571;47.512;19.054;2022-12-19T11:33:44;44.83;;;15.97;;
75890;SDS011;64571;47.512;19.054;2022-12-19T11:36:51;40.12;;;15.57;;
75890;SDS011;64571;47.512;19.054;2022-12-19T11:40:04;42.15;;;15.88;;
75890;SDS011;64571;47.512;19.054;2022-12-19T11:46:42;40.05;;;15.70;;
75890;SDS011;64571;47.512;19.054;2022-12-19T11:49:47;43.03;;;15.87;;
75890;SDS011;64571;47.512;19.054;2022-12-19T11:56:28;39.75;;;16.90;;
75890;SDS011;64571;47.512;19.054;2022-12-19T11:59:33;45.88;;;15.20;;
75890;SDS011;64571;47.512;19.054;2022-12-19T12:06:09;37.17;;;14.20;;
75890;SDS011;64571;47.512;19.054;2022-12-19T12:20:39;47.67;;;16.12;;
75890;SDS011;64571;47.512;19.054;2022-12-19T12:24:39;43.53;;;15.80;;
75890;SDS011;64571;47.512;19.054;2022-12-19T12:35:38;44.70;;;14.63;;
75890;SDS011;64571;47.512;19.054;2022-12-19T12:42:17;37.57;;;14.37;;
75890;SDS011;64571;47.512;19.054;2022-12-19T12:45:49;38.38;;;15.48;;
75890;SDS011;64571;47.512;19.054;2022-12-19T12:48:56;49.13;;;16.60;;
75890;SDS011;64571;47.512;19.054;2022-12-19T12:52:07;45.40;;;17.98;;
75890;SDS011;64571;47.512;19.054;2022-12-19T12:55:36;43.55;;;15.82;;
75890;SDS011;64571;47.512;19.054;2022-12-19T13:01:49;40.85;;;16.37;;
75890;SDS011;64571;47.512;19.054;2022-12-19T13:04:58;43.63;;;17.30;;
75890;SDS011;64571;47.512;19.054;2022-12-19T13:11:38;42.72;;;17.52;;
75890;SDS011;64571;47.512;19.054;2022-12-19T13:18:30;40.83;;;16.55;;
75890;SDS011;64571;47.512;19.054;2022-12-19T13:28:37;40.05;;;16.35;;
75890;SDS011;64571;47.512;19.054;2022-12-19T13:31:40;45.40;;;15.63;;
75890;SDS011;64571;47.512;19.054;2022-12-19T13:38:44;43.67;;;16.85;;
75890;SDS011;64571;47.512;19.054;2022-12-19T13:45:37;45.10;;;17.08;;
75890;SDS011;64571;47.512;19.054;2022-12-19T13:48:52;41.07;;;16.20;;
75890;SDS011;64571;47.512;19.054;2022-12-19T13:51:58;41.33;;;16.87;;
75890;SDS011;64571;47.512;19.054;2022-12-19T13:55:01;38.60;;;15.75;;
75890;SDS011;64571;47.512;19.054;2022-12-19T13:58:04;48.30;;;17.55;;
75890;SDS011;64571;47.512;19.054;2022-12-19T14:01:07;44.55;;;18.17;;
75890;SDS011;64571;47.512;19.054;2022-12-19T14:07:37;51.17;;;18.85;;
75890;SDS011;64571;47.512;19.054;2022-12-19T14:10:43;52.28;;;19.35;;
75890;SDS011;64571;47.512;19.054;2022-12-19T14:14:10;45.58;;;18.00;;
75890;SDS011;64571;47.512;19.054;2022-12-19T14:17:35;43.53;;;18.52;;
75890;SDS011;64571;47.512;19.054;2022-12-19T14:20:38;45.90;;;17.47;;
75890;SDS011;64571;47.512;19.054;2022-12-19T14:27:33;45.28;;;16.77;;
75890;SDS011;64571;47.512;19.054;2022-12-19T14:31:01;51.78;;;19.60;;
75890;SDS011;64571;47.512;19.054;2022-12-19T14:34:13;47.50;;;18.33;;
75890;SDS011;64571;47.512;19.054;2022-12-19T14:37:42;48.37;;;19.63;;
75890;SDS011;64571;47.512;19.054;2022-12-19T14:41:13;54.97;;;19.50;;
75890;SDS011;64571;47.512;19.054;2022-12-19T14:51:47;45.78;;;17.87;;
75890;SDS011;64571;47.512;19.054;2022-12-19T14:58:55;52.22;;;19.95;;
75890;SDS011;64571;47.512;19.054;2022-12-19T15:05:11;52.35;;;18.77;;
75890;SDS011;64571;47.512;19.054;2022-12-19T15:08:27;50.22;;;18.65;;
75890;SDS011;64571;47.512;19.054;2022-12-19T15:11:53;46.87;;;17.43;;
75890;SDS011;64571;47.512;19.054;2022-12-19T15:15:43;52.17;;;18.85;;
75890;SDS011;64571;47.512;19.054;2022-12-19T15:18:49;52.22;;;16.70;;
75890;SDS011;64571;47.512;19.054;2022-12-19T15:21:54;42.28;;;16.67;;
75890;SDS011;64571;47.512;19.054;2022-12-19T15:24:57;55.83;;;20.98;;
75890;SDS011;64571;47.512;19.054;2022-12-19T15:27:59;55.87;;;18.83;;
75890;SDS011;64571;47.512;19.054;2022-12-19T15:31:04;52.13;;;18.30;;
75890;SDS011;64571;47.512;19.054;2022-12-19T15:34:27;48.28;;;18.12;;
75890;SDS011;64571;47.512;19.054;2022-12-19T15:37:45;40.83;;;17.15;;
75890;SDS011;64571;47.512;19.054;2022-12-19T15:40:47;45.42;;;17.70;;
75890;SDS011;64571;47.512;19.054;2022-12-19T15:43:50;48.87;;;18.47;;
75890;SDS011;64571;47.512;19.054;2022-12-19T15:47:06;43.92;;;16.62;;
75890;SDS011;64571;47.512;19.054;2022-12-19T15:50:18;52.38;;;16.25;;
75890;SDS011;64571;47.512;19.054;2022-12-19T15:53:26;50.90;;;19.67;;
75890;SDS011;64571;47.512;19.054;2022-12-19T15:56:43;48.92;;;19.37;;
75890;SDS011;64571;47.512;19.054;2022-12-19T15:59:48;49.60;;;19.23;;
75890;SDS011;64571;47.512;19.054;2022-12-19T16:02:52;44.33;;;17.15;;
75890;SDS011;64571;47.512;19.054;2022-12-19T16:06:16;50.65;;;17.50;;
75890;SDS011;64571;47.512;19.054;2022-12-19T16:09:23;52.75;;;22.13;;
75890;SDS011;64571;47.512;19.054;2022-12-19T16:12:30;51.03;;;19.80;;
75890;SDS011;64571;47.512;19.054;2022-12-19T16:15:37;49.10;;;19.60;;
75890;SDS011;64571;47.512;19.054;2022-12-19T16:18:42;49.75;;;16.80;;
75890;SDS011;64571;47.512;19.054;2022-12-19T16:21:46;48.45;;;17.42;;
75890;SDS011;64571;47.512;19.054;2022-12-19T16:24:49;46.88;;;18.67;;
75890;SDS011;64571;47.512;19.054;2022-12-19T16:27:53;50.90;;;18.23;;
75890;SDS011;64571;47.512;19.054;2022-12-19T16:31:11;50.80;;;19.03;;
75890;SDS011;64571;47.512;19.054;2022-12-19T16:34:16;51.85;;;20.33;;
75890;SDS011;64571;47.512;19.054;2022-12-19T16:37:20;49.10;;;17.45;;
75890;SDS011;64571;47.512;19.054;2022-12-19T16:40:29;45.50;;;16.35;;
75890;SDS011;64571;47.512;19.054;2022-12-19T16:43:34;46.47;;;18.23;;
75890;SDS011;64571;47.512;19.054;2022-12-19T16:46:38;46.80;;;17.67;;
75890;SDS011;64571;47.512;19.054;2022-12-19T16:49:46;47.65;;;18.55;;
75890;SDS011;64571;47.512;19.054;2022-12-19T16:52:49;46.45;;;17.25;;
75890;SDS011;64571;47.512;19.054;2022-12-19T16:55:53;46.45;;;17.00;;
75890;SDS011;64571;47.512;19.054;2022-12-19T16:58:57;47.42;;;18.20;;
75890;SDS011;64571;47.512;19.054;2022-12-19T17:05:37;49.15;;;18.75;;
75890;SDS011;64571;47.512;19.054;2022-12-19T17:08:40;41.97;;;16.17;;
75890;SDS011;64571;47.512;19.054;2022-12-19T17:11:44;47.97;;;16.62;;
75890;SDS011;64571;47.512;19.054;2022-12-19T17:15:03;47.38;;;17.75;;
75890;SDS011;64571;47.512;19.054;2022-12-19T17:18:13;47.10;;;17.77;;
75890;SDS011;64571;47.512;19.054;2022-12-19T17:21:26;51.17;;;21.35;;
75890;SDS011;64571;47.512;19.054;2022-12-19T17:24:28;45.10;;;18.25;;
75890;SDS011;64571;47.512;19.054;2022-12-19T17:27:31;50.80;;;19.83;;
75890;SDS011;64571;47.512;19.054;2022-12-19T17:30:34;59.53;;;21.98;;
75890;SDS011;64571;47.512;19.054;2022-12-19T17:33:38;49.63;;;18.77;;
75890;SDS011;64571;47.512;19.054;2022-12-19T17:36:42;52.03;;;20.37;;
75890;SDS011;64571;47.512;19.054;2022-12-19T17:39:44;51.20;;;20.15;;
75890;SDS011;64571;47.512;19.054;2022-12-19T17:42:47;45.22;;;17.70;;
75890;SDS011;64571;47.512;19.054;2022-12-19T17:45:50;49.67;;;19.60;;
75890;SDS011;64571;47.512;19.054;2022-12-19T17:48:53;59.90;;;22.20;;
75890;SDS011;64571;47.512;19.054;2022-12-19T17:51:56;45.25;;;17.77;;
75890;SDS011;64571;47.512;19.054;2022-12-19T17:55:11;50.17;;;18.67;;
75890;SDS011;64571;47.512;19.054;2022-12-19T17:58:23;50.12;;;18.10;;
75890;SDS011;64571;47.512;19.054;2022-12-19T18:01:26;50.33;;;19.80;;
75890;SDS011;64571;47.512;19.054;2022-12-19T18:04:31;43.03;;;18.00;;
75890;SDS011;64571;47.512;19.054;2022-12-19T18:07:33;44.85;;;17.05;;
75890;SDS011;64571;47.512;19.054;2022-12-19T18:10:37;46.03;;;17.17;;
75890;SDS011;64571;47.512;19.054;2022-12-19T18:13:39;47.88;;;18.42;;
75890;SDS011;64571;47.512;19.054;2022-12-19T18:16:42;53.97;;;21.42;;
75890;SDS011;64571;47.512;19.054;2022-12-19T18:19:45;46.23;;;18.53;;
75890;SDS011;64571;47.512;19.054;2022-12-19T18:22:48;52.67;;;19.85;;
75890;SDS011;64571;47.512;19.054;2022-12-19T18:25:50;53.17;;;20.05;;
75890;SDS011;64571;47.512;19.054;2022-12-19T18:29:02;49.67;;;20.70;;
75890;SDS011;64571;47.512;19.054;2022-12-19T18:32:05;49.10;;;18.10;;
75890;SDS011;64571;47.512;19.054;2022-12-19T18:35:13;45.83;;;14.93;;
75890;SDS011;64571;47.512;19.054;2022-12-19T18:38:18;45.50;;;16.15;;
75890;SDS011;64571;47.512;19.054;2022-12-19T18:41:22;48.42;;;17.37;;
75890;SDS011;64571;47.512;19.054;2022-12-19T18:44:25;51.58;;;18.95;;
75890;SDS011;64571;47.512;19.054;2022-12-19T18:47:27;47.05;;;18.50;;
75890;SDS011;64571;47.512;19.054;2022-12-19T18:50:30;47.80;;;18.87;;
75890;SDS011;64571;47.512;19.054;2022-12-19T18:53:33;43.55;;;18.10;;
75890;SDS011;64571;47.512;19.054;2022-12-19T18:56:37;45.70;;;18.25;;
75890;SDS011;64571;47.512;19.054;2022-12-19T18:59:39;46.67;;;16.45;;
75890;SDS011;64571;47.512;19.054;2022-12-19T19:02:58;50.70;;;16.90;;
75890;SDS011;64571;47.512;19.054;2022-12-19T19:06:04;44.93;;;18.10;;
75890;SDS011;64571;47.512;19.054;2022-12-19T19:09:14;51.97;;;18.33;;
75890;SDS011;64571;47.512;19.054;2022-12-19T19:12:20;51.92;;;19.42;;
75890;SDS011;64571;47.512;19.054;2022-12-19T19:15:25;49.85;;;18.10;;
75890;SDS011;64571;47.512;19.054;2022-12-19T19:18:31;46.88;;;19.15;;
75890;SDS011;64571;47.512;19.054;2022-12-19T19:21:37;49.33;;;18.83;;
75890;SDS011;64571;47.512;19.054;2022-12-19T19:24:40;49.60;;;18.45;;
75890;SDS011;64571;47.512;19.054;2022-12-19T19:27:42;53.08;;;19.95;;
75890;SDS011;64571;47.512;19.054;2022-12-19T19:30:46;47.65;;;18.75;;
75890;SDS011;64571;47.512;19.054;2022-12-19T19:33:49;51.25;;;19.33;;
75890;SDS011;64571;47.512;19.054;2022-12-19T19:37:02;47.97;;;18.63;;
75890;SDS011;64571;47.512;19.054;2022-12-19T19:40:07;48.95;;;19.40;;
75890;SDS011;64571;47.512;19.054;2022-12-19T19:43:10;46.05;;;19.58;;
75890;SDS011;64571;47.512;19.054;2022-12-19T19:46:12;47.22;;;17.60;;
75890;SDS011;64571;47.512;19.054;2022-12-19T19:49:15;52.42;;;19.73;;
75890;SDS011;64571;47.512;19.054;2022-12-19T19:52:17;55.47;;;19.20;;
75890;SDS011;64571;47.512;19.054;2022-12-19T19:55:20;49.80;;;19.45;;
75890;SDS011;64571;47.512;19.054;2022-12-19T19:58:22;55.92;;;19.77;;
75890;SDS011;64571;47.512;19.054;2022-12-19T20:01:25;50.78;;;20.40;;
75890;SDS011;64571;47.512;19.054;2022-12-19T20:04:28;53.20;;;19.87;;
75890;SDS011;64571;47.512;19.054;2022-12-19T20:07:30;53.83;;;21.27;;
75890;SDS011;64571;47.512;19.054;2022-12-19T20:10:33;55.45;;;22.15;;
75890;SDS011;64571;47.512;19.054;2022-12-19T20:13:36;55.30;;;22.17;;
75890;SDS011;64571;47.512;19.054;2022-12-19T20:16:39;54.05;;;20.08;;
75890;SDS011;64571;47.512;19.054;2022-12-19T20:19:41;60.28;;;20.65;;